createdAt,value
2023-02-14T00:01:31.226Z,65.84
2023-02-14T00:04:32.765Z,65.73
2023-02-14T00:07:36.123Z,66.03
2023-02-14T00:10:37.450Z,65.47
2023-02-14T00:13:40.332Z,67.07
2023-02-14T00:16:41.539Z,67.38
2023-02-14T00:19:44.450Z,67.69
2023-02-14T00:22:46.408Z,67.93
2023-02-14T00:25:48.915Z,67.11
2023-02-14T00:28:51.436Z,66.60
2023-02-14T00:31:53.367Z,66.92
2023-02-14T00:34:56.252Z,67.65
2023-02-14T00:37:58.156Z,67.68
2023-02-14T00:41:01.161Z,66.82
2023-02-14T00:44:02.799Z,67.18
2023-02-14T00:47:05.586Z,67.77
2023-02-14T00:50:08.773Z,68.09
2023-02-14T00:53:10.740Z,68.37
2023-02-14T00:56:13.561Z,69.10
2023-02-14T00:59:15.047Z,68.26
2023-02-14T01:02:17.590Z,68.61
2023-02-14T01:05:20.365Z,68.45
2023-02-14T01:08:22.457Z,67.11
2023-02-14T01:11:26.112Z,65.22
2023-02-14T01:14:28.794Z,65.33
2023-02-14T01:17:30.108Z,65.78
2023-02-14T01:20:32.731Z,66.06
2023-02-14T01:23:34.764Z,64.97
2023-02-14T01:26:37.408Z,64.87
2023-02-14T01:29:39.949Z,64.61
2023-02-14T01:32:41.875Z,65.39
2023-02-14T01:35:44.423Z,65.84
2023-02-14T01:38:46.516Z,66.89
2023-02-14T01:41:49.716Z,66.90
2023-02-14T01:44:58.393Z,65.72
2023-02-14T01:48:00.117Z,66.42
2023-02-14T01:51:02.680Z,66.75
2023-02-14T01:54:08.097Z,66.88
2023-02-14T01:57:14.413Z,66.88
2023-02-14T02:00:36.042Z,67.07
2023-02-14T02:03:41.338Z,66.03
2023-02-14T02:06:48.855Z,66.91
2023-02-14T02:09:54.882Z,66.41
2023-02-14T02:13:00.886Z,66.65
2023-02-14T02:16:22.316Z,66.87
2023-02-14T02:19:51.548Z,67.19
2023-02-14T02:23:13.307Z,67.10
2023-02-14T02:27:00.293Z,67.78
2023-02-14T02:30:35.815Z,68.21
2023-02-14T02:34:11.643Z,68.44
2023-02-14T02:37:31.768Z,68.14
2023-02-14T02:40:47.462Z,68.57
2023-02-14T02:43:54.974Z,68.14
2023-02-14T02:47:07.640Z,68.44
2023-02-14T02:50:38.261Z,68.57
2023-02-14T02:53:45.729Z,68.33
2023-02-14T02:56:54.046Z,68.93
2023-02-14T02:59:57.147Z,68.53
2023-02-14T03:03:18.758Z,68.30
2023-02-14T03:06:20.109Z,69.43
2023-02-14T03:09:55.181Z,69.41
2023-02-14T03:13:36.541Z,69.40
2023-02-14T03:17:03.102Z,70.18
2023-02-14T03:20:14.392Z,69.84
2023-02-14T03:23:21.392Z,68.88
2023-02-14T03:30:01.355Z,69.13
2023-02-14T03:33:09.973Z,69.45
2023-02-14T03:36:17.562Z,69.29
2023-02-14T03:39:25.111Z,70.28
2023-02-14T03:45:59.742Z,70.34
2023-02-14T03:49:06.364Z,70.36
2023-02-14T03:52:10.897Z,70.68
2023-02-14T03:55:16.330Z,70.77
2023-02-14T03:58:23.274Z,70.89
2023-02-14T04:01:27.932Z,70.88
2023-02-14T04:04:36.290Z,70.87
2023-02-14T04:07:46.020Z,70.72
2023-02-14T04:10:47.576Z,71.00
2023-02-14T04:13:50.777Z,70.38
2023-02-14T04:17:11.713Z,70.27
2023-02-14T04:20:13.195Z,69.65
2023-02-14T04:23:15.672Z,70.31
2023-02-14T04:26:17.022Z,70.62
2023-02-14T04:29:20.736Z,70.82
2023-02-14T04:32:22.488Z,70.58
2023-02-14T04:35:25.036Z,70.25
2023-02-14T04:38:27.663Z,70.88
2023-02-14T04:41:30.264Z,70.76
2023-02-14T04:44:34.462Z,70.22
2023-02-14T04:47:35.704Z,70.49
2023-02-14T04:50:38.273Z,70.22
2023-02-14T04:53:40.596Z,69.80
2023-02-14T04:56:42.028Z,70.92
2023-02-14T04:59:45.398Z,71.00
2023-02-14T05:02:46.679Z,70.86
2023-02-14T05:05:49.252Z,70.56
2023-02-14T05:08:51.959Z,70.05
2023-02-14T05:11:53.228Z,70.02
2023-02-14T05:14:58.120Z,69.56
2023-02-14T05:18:02.028Z,69.94
2023-02-14T05:21:04.997Z,70.46
2023-02-14T05:24:07.760Z,70.43
2023-02-14T05:27:10.918Z,70.30
2023-02-14T05:30:15.565Z,70.65
2023-02-14T05:33:16.906Z,71.11
2023-02-14T05:36:19.471Z,71.16
2023-02-14T05:39:22.171Z,71.49
2023-02-14T05:42:23.458Z,70.91
2023-02-14T05:45:26.675Z,70.87
2023-02-14T05:48:27.928Z,71.02
2023-02-14T05:51:30.571Z,71.12
2023-02-14T05:54:33.091Z,70.88
2023-02-14T05:57:34.672Z,70.70
2023-02-14T06:00:40.725Z,70.98
2023-02-14T06:03:42.402Z,71.17
2023-02-14T06:10:09.007Z,70.21
2023-02-14T06:13:11.692Z,71.12
2023-02-14T06:16:13.638Z,71.23
2023-02-14T06:19:16.194Z,71.05
2023-02-14T06:22:17.469Z,70.41
2023-02-14T06:25:20.770Z,69.91
2023-02-14T06:28:22.482Z,69.45
2023-02-14T06:31:26.369Z,70.00
2023-02-14T06:34:27.863Z,69.21
2023-02-14T06:37:30.376Z,69.82
2023-02-14T06:40:31.637Z,69.52
2023-02-14T06:43:34.231Z,69.67
2023-02-14T06:46:36.239Z,69.55
2023-02-14T06:53:00.998Z,69.21
2023-02-14T06:56:02.407Z,69.66
2023-02-14T06:59:04.931Z,70.84
2023-02-14T07:02:10.220Z,69.64
2023-02-14T07:05:11.576Z,69.92
2023-02-14T07:08:14.131Z,69.43
2023-02-14T07:11:15.422Z,69.35
2023-02-14T07:14:17.962Z,69.38
2023-02-14T07:17:21.242Z,70.12
2023-02-14T07:20:22.763Z,70.56
2023-02-14T07:23:25.309Z,70.62
2023-02-14T07:26:28.399Z,69.60
2023-02-14T07:29:30.919Z,69.75
2023-02-14T07:32:34.976Z,69.65
2023-02-14T07:35:36.260Z,69.63
2023-02-14T07:38:38.871Z,69.26
2023-02-14T07:41:40.189Z,69.57
2023-02-14T07:44:42.985Z,69.07
2023-02-14T07:47:46.245Z,69.31
2023-02-14T07:50:49.137Z,69.53
2023-02-14T07:53:51.691Z,69.46
2023-02-14T07:56:53.062Z,69.41
2023-02-14T07:59:58.247Z,69.03
2023-02-14T08:03:00.232Z,68.29
2023-02-14T08:06:02.824Z,68.73
2023-02-14T08:09:05.414Z,68.18
2023-02-14T08:12:24.680Z,68.25
2023-02-14T08:15:46.353Z,67.52
2023-02-14T08:18:48.360Z,67.50
2023-02-14T08:25:11.863Z,67.69
2023-02-14T08:28:14.140Z,66.88
2023-02-14T08:31:34.504Z,65.45
2023-02-14T08:34:38.763Z,65.14
2023-02-14T08:37:39.996Z,65.52
2023-02-14T08:40:42.553Z,66.09
2023-02-14T08:43:45.250Z,65.78
2023-02-14T08:46:47.921Z,66.31
2023-02-14T08:49:51.137Z,65.58
2023-02-14T08:52:52.446Z,64.71
2023-02-14T08:55:55.106Z,65.62
2023-02-14T08:58:56.420Z,64.24
2023-02-14T09:05:22.549Z,63.22
2023-02-14T09:08:25.221Z,63.47
2023-02-14T09:11:26.880Z,63.17
2023-02-14T09:14:31.874Z,63.20
2023-02-14T09:17:33.548Z,62.94
2023-02-14T09:20:37.125Z,61.94
2023-02-14T09:23:38.545Z,61.93
2023-02-14T09:26:42.661Z,61.88
2023-02-14T09:29:43.976Z,62.41
2023-02-14T09:32:46.524Z,60.99
2023-02-14T09:35:48.480Z,61.54
2023-02-14T09:38:51.047Z,61.03
2023-02-14T09:42:06.289Z,61.13
2023-02-14T09:45:13.385Z,60.31
2023-02-14T09:48:25.690Z,59.89
2023-02-14T09:51:31.989Z,60.23
2023-02-14T09:54:34.887Z,61.19
2023-02-14T09:57:45.603Z,61.26
2023-02-14T10:00:53.142Z,60.35
2023-02-14T10:04:12.733Z,59.99
2023-02-14T10:07:25.046Z,60.56
2023-02-14T10:10:32.485Z,60.41
2023-02-14T10:13:41.288Z,59.54
2023-02-14T10:16:45.993Z,60.23
2023-02-14T10:19:53.220Z,59.90
2023-02-14T10:23:01.758Z,60.51
2023-02-14T10:26:08.661Z,60.66
2023-02-14T10:29:15.611Z,59.63
2023-02-14T10:32:24.300Z,60.16
2023-02-14T10:35:36.279Z,58.61
2023-02-14T10:38:45.976Z,59.05
2023-02-14T10:41:53.766Z,59.29
2023-02-14T10:45:06.663Z,59.70
2023-02-14T10:48:18.935Z,58.14
2023-02-14T10:51:33.772Z,57.44
2023-02-14T10:54:38.406Z,57.93
2023-02-14T10:57:45.379Z,57.70
2023-02-14T11:00:57.481Z,58.21
2023-02-14T11:04:06.982Z,58.18
2023-02-14T11:07:13.872Z,58.01
2023-02-14T11:10:17.555Z,58.40
2023-02-14T11:13:35.812Z,57.96
2023-02-14T11:16:37.483Z,58.74
2023-02-14T11:19:40.079Z,58.07
2023-02-14T11:22:42.618Z,57.91
2023-02-14T11:25:50.609Z,58.45
2023-02-14T11:28:57.192Z,57.23
2023-02-14T11:32:07.542Z,56.78
2023-02-14T11:35:19.298Z,56.95
2023-02-14T11:38:29.683Z,57.98
2023-02-14T11:45:28.546Z,57.35
2023-02-14T11:48:38.347Z,58.25
2023-02-14T11:51:45.809Z,58.31
2023-02-14T11:54:49.977Z,57.39
2023-02-14T11:57:52.770Z,57.76
2023-02-14T12:00:55.516Z,56.99
2023-02-14T12:03:59.365Z,57.91
2023-02-14T12:07:17.312Z,57.55
2023-02-14T12:13:53.325Z,56.94
2023-02-14T12:17:02.293Z,57.71
2023-02-14T12:20:09.462Z,56.44
2023-02-14T12:23:18.904Z,57.51
2023-02-14T12:26:29.613Z,56.90
2023-02-14T12:29:36.876Z,57.68
2023-02-14T12:32:47.569Z,57.10
2023-02-14T12:35:58.416Z,57.32
2023-02-14T12:39:10.261Z,57.10
2023-02-14T12:42:33.270Z,55.04
2023-02-14T12:45:54.776Z,56.31
2023-02-14T12:49:32.575Z,54.76
2023-02-14T12:52:54.659Z,55.57
2023-02-14T12:56:05.794Z,54.84
2023-02-14T12:59:20.496Z,56.97
2023-02-14T13:02:49.309Z,55.97
2023-02-14T13:09:33.657Z,57.61
2023-02-14T13:12:39.848Z,57.54
2023-02-14T13:15:53.129Z,56.38
2023-02-14T13:19:01.796Z,55.50
2023-02-14T13:22:06.532Z,56.00
2023-02-14T13:25:22.139Z,56.23
2023-02-14T13:28:26.399Z,56.54
2023-02-14T13:31:29.617Z,56.29
2023-02-14T13:34:34.616Z,56.90
2023-02-14T13:37:38.589Z,56.47
2023-02-14T13:40:40.146Z,58.18
2023-02-14T13:43:54.511Z,57.39
2023-02-14T13:46:55.899Z,57.46
2023-02-14T13:50:01.708Z,58.00
2023-02-14T13:53:03.059Z,56.89
2023-02-14T13:56:27.157Z,57.12
2023-02-14T13:59:32.575Z,57.71
2023-02-14T14:02:43.398Z,58.02
2023-02-14T14:05:48.558Z,57.96
2023-02-14T14:08:55.450Z,58.27
2023-02-14T14:11:58.250Z,57.87
2023-02-14T14:15:15.554Z,58.42
2023-02-14T14:18:41.814Z,57.82
2023-02-14T14:21:59.873Z,58.09
2023-02-14T14:25:05.812Z,58.42
2023-02-14T14:28:10.561Z,57.64
2023-02-14T14:31:14.689Z,58.66
2023-02-14T14:34:18.323Z,59.25
2023-02-14T14:37:22.801Z,58.09
2023-02-14T14:40:27.898Z,58.81
2023-02-14T14:43:32.204Z,59.76
2023-02-14T14:46:35.494Z,59.36
2023-02-14T14:49:36.773Z,58.84
2023-02-14T14:52:43.047Z,58.50
2023-02-14T14:55:52.379Z,59.01
2023-02-14T14:58:54.360Z,59.40
2023-02-14T15:01:57.732Z,59.66
2023-02-14T15:05:12.973Z,59.57
2023-02-14T15:08:17.460Z,59.51
2023-02-14T15:11:43.102Z,59.39
2023-02-14T15:14:50.562Z,59.87
2023-02-14T15:21:15.704Z,60.24
2023-02-14T15:24:19.477Z,60.07
2023-02-14T15:27:24.432Z,59.87
2023-02-14T15:30:33.361Z,60.16
2023-02-14T15:33:37.500Z,61.12
2023-02-14T15:36:45.818Z,61.07
2023-02-14T15:39:51.447Z,60.31
2023-02-14T15:42:55.864Z,61.37
2023-02-14T15:46:03.048Z,60.28
2023-02-14T15:49:11.089Z,61.79
2023-02-14T15:52:14.003Z,61.25
2023-02-14T15:55:19.712Z,60.64
2023-02-14T15:58:24.686Z,61.31
2023-02-14T16:01:28.092Z,60.54
2023-02-14T16:04:32.377Z,61.17
2023-02-14T16:07:35.141Z,60.50
2023-02-14T16:10:39.071Z,61.36
2023-02-14T16:13:42.626Z,61.86
2023-02-14T16:16:59.274Z,61.39
2023-02-14T16:20:21.654Z,61.42
2023-02-14T16:23:25.798Z,61.50
2023-02-14T16:26:28.498Z,62.16
2023-02-14T16:29:30.000Z,60.52
2023-02-14T16:35:53.777Z,61.72
2023-02-14T16:38:57.281Z,61.39
2023-02-14T16:41:58.580Z,60.87
2023-02-14T16:45:01.230Z,62.19
2023-02-14T16:48:03.728Z,62.64
2023-02-14T16:51:05.819Z,61.48
2023-02-14T16:54:13.362Z,61.12
2023-02-14T16:57:20.355Z,61.80
2023-02-14T17:00:22.452Z,61.07
2023-02-14T17:03:25.021Z,61.56
2023-02-14T17:06:29.755Z,62.60
2023-02-14T17:09:39.198Z,61.63
2023-02-14T17:12:43.404Z,61.58
2023-02-14T17:15:46.045Z,62.46
2023-02-14T17:18:50.738Z,61.58
2023-02-14T17:21:52.846Z,62.62
2023-02-14T17:24:57.062Z,62.90
2023-02-14T17:28:00.248Z,63.07
2023-02-14T17:34:24.849Z,62.99
2023-02-14T17:37:26.854Z,62.82
2023-02-14T17:40:29.795Z,63.91
2023-02-14T17:43:31.191Z,63.03
2023-02-14T17:46:33.951Z,63.58
2023-02-14T17:49:36.516Z,62.93
2023-02-14T17:52:38.677Z,62.95
2023-02-14T17:55:41.445Z,63.18
2023-02-14T17:58:46.317Z,62.64
2023-02-14T18:01:49.421Z,63.69
2023-02-14T18:04:50.771Z,62.50
2023-02-14T18:07:53.947Z,62.70
2023-02-14T18:10:55.380Z,62.38
2023-02-14T18:14:00.115Z,63.49
2023-02-14T18:17:01.551Z,63.38
2023-02-14T18:20:05.791Z,63.82
2023-02-14T18:23:09.881Z,63.86
2023-02-14T18:26:13.354Z,63.53
2023-02-14T18:29:15.923Z,63.61
2023-02-14T18:32:17.201Z,63.88
2023-02-14T18:35:19.725Z,63.54
2023-02-14T18:38:23.098Z,62.89
2023-02-14T18:41:26.414Z,63.85
2023-02-14T18:44:28.213Z,64.13
2023-02-14T18:47:30.742Z,64.61
2023-02-14T18:50:34.787Z,64.00
2023-02-14T18:53:37.372Z,63.50
2023-02-14T18:56:40.445Z,62.90
2023-02-14T18:59:42.347Z,64.37
2023-02-14T19:02:44.859Z,64.07
2023-02-14T19:05:47.483Z,64.45
2023-02-14T19:08:51.555Z,64.80
2023-02-14T19:11:52.850Z,64.53
2023-02-14T19:18:16.097Z,64.44
2023-02-14T19:21:20.674Z,64.17
2023-02-14T19:24:24.803Z,63.90
2023-02-14T19:27:27.288Z,64.55
2023-02-14T19:30:30.308Z,64.89
2023-02-14T19:33:31.664Z,65.79
2023-02-14T19:36:36.762Z,63.76
2023-02-14T19:39:38.685Z,64.88
2023-02-14T19:42:41.207Z,65.33
2023-02-14T19:45:43.798Z,65.23
2023-02-14T19:48:45.195Z,65.15
2023-02-14T19:51:48.463Z,65.22
2023-02-14T19:54:50.423Z,65.54
2023-02-14T19:57:52.941Z,65.90
2023-02-14T20:00:59.056Z,65.52
2023-02-14T20:04:00.886Z,65.84
2023-02-14T20:07:03.419Z,65.76
2023-02-14T20:10:06.944Z,66.13
2023-02-14T20:13:10.183Z,66.52
2023-02-14T20:16:12.717Z,66.31
2023-02-14T20:19:16.087Z,65.81
2023-02-14T20:22:19.001Z,66.49
2023-02-14T20:25:20.959Z,65.84
2023-02-14T20:28:23.510Z,65.45
2023-02-14T20:31:26.302Z,66.45
2023-02-14T20:34:27.915Z,67.21
2023-02-14T20:37:30.496Z,67.38
2023-02-14T20:40:32.665Z,67.87
2023-02-14T20:43:35.450Z,67.80
2023-02-14T20:46:38.064Z,67.90
2023-02-14T20:49:43.873Z,67.44
2023-02-14T20:52:46.450Z,67.96
2023-02-14T20:55:49.592Z,68.43
2023-02-14T20:58:52.211Z,68.40
2023-02-14T21:01:54.346Z,68.56
2023-02-14T21:05:00.623Z,68.52
2023-02-14T21:08:03.195Z,68.95
2023-02-14T21:11:06.395Z,69.16
2023-02-14T21:14:09.165Z,69.20
2023-02-14T21:17:10.441Z,69.30
2023-02-14T21:20:14.035Z,69.58
2023-02-14T21:23:15.325Z,69.72
2023-02-14T21:26:19.162Z,69.37
2023-02-14T21:29:21.905Z,69.48
2023-02-14T21:32:23.245Z,69.25
2023-02-14T21:38:45.765Z,69.81
2023-02-14T21:45:30.232Z,70.04
2023-02-14T21:48:50.433Z,70.13
2023-02-14T21:51:53.286Z,70.33
2023-02-14T21:54:54.539Z,70.90
2023-02-14T21:57:57.743Z,70.15
2023-02-14T22:01:00.762Z,70.48
2023-02-14T22:04:06.937Z,71.09
2023-02-14T22:07:09.527Z,70.70
2023-02-14T22:10:13.176Z,70.35
2023-02-14T22:13:16.358Z,71.16
2023-02-14T22:16:20.621Z,71.25
2023-02-14T22:19:23.367Z,70.81
2023-02-14T22:22:26.116Z,70.69
2023-02-14T22:25:27.454Z,70.69
2023-02-14T22:28:30.700Z,71.20
2023-02-14T22:31:34.029Z,70.69
2023-02-14T22:34:36.913Z,70.98
2023-02-14T22:37:39.485Z,71.49
2023-02-14T22:40:42.555Z,71.18
2023-02-14T22:43:46.320Z,72.01
2023-02-14T22:46:47.696Z,71.70
2023-02-14T22:49:50.892Z,71.73
2023-02-14T22:52:53.505Z,71.68
2023-02-14T22:55:54.785Z,71.63
2023-02-14T22:59:00.525Z,72.09
2023-02-14T23:02:01.961Z,72.07
2023-02-14T23:08:25.357Z,72.91
2023-02-14T23:11:30.154Z,72.14
2023-02-14T23:14:50.679Z,72.43
2023-02-14T23:21:51.657Z,72.87
2023-02-14T23:24:54.582Z,72.31
2023-02-14T23:27:57.273Z,72.61
2023-02-14T23:31:00.802Z,72.69
2023-02-14T23:34:03.577Z,72.84
2023-02-14T23:37:05.740Z,72.27
2023-02-14T23:40:10.460Z,72.25
2023-02-14T23:43:11.904Z,72.42
2023-02-14T23:46:15.239Z,72.15
2023-02-14T23:49:17.350Z,72.87
2023-02-14T23:52:19.892Z,72.97
2023-02-14T23:55:22.604Z,72.28
2023-02-14T23:58:25.290Z,72.95
